Decoded Metar for UKON (MYKOLAIV in UKRAINE) (IATA:NLV) | Meteo·Mobile Aviation Weather
aviador You're here:

UKON Decoded Metar

MYKOLAIV in UKRAINE
Report Time2019-02-17 05:00:00
UTC Time2019-02-17 05:32:00
Flight Rules ifr IFR
Wind290° at 6 kt
W.Decomp.*RWY 23: 3.4 kt HW 5.0 kt RCW
W.Rank290° ranks 23
Current wind is below 290° avg. (8.6)
Visibility2000 m
Phenomena:Mist
Clouds:N/A
Expected CloudBase > 400 ft AGL from Temp-Dew spread
CeilingNone
Temp01°C (ISA -14)
Dew Point00°C (93% RH)
AAT-3.1°C
QNH1022 hPa
Density Alt-1,699 ft
Elevation184 ft
Report Wrong Elevation
Raw Report
UKON 170500Z 29003MPS 2000 BR NSC 01/00 Q1022 NOSIG=

Extra information for UKON:More info

Metar Taf Metar & Taf Last 4 Metars F.Rules Stats Wind Profile Meteogram Temp Stats Airport Information Weather charts Add Link Nearby VenuesMetar ALERT Operation Metar Decoded Social comments